Tropical Cyclones
[Index]
Main Index Home Page Stock Weather Photos Extreme Storms Discussion Storm News and Storm Chasing Reports Tropical Cyclones / Hurricanes / Typhoons Weather Data and Links Wild Fires / Bushfires Weather Observation Techniques Weather Picture Catalogue Tornado Pictures and Reports Stock Video Footage and DVDs for sale
Season 1994-1995 Tropical Cyclone VANIA Track Map
Season 1994-1995 Summaries: [BoM-AU] [JTWC-AU] [JTWC-SIO] [JTWC-SPAC] [JTWC-SH]
<<- Previous TC | JTWC 1994-1995 Season | Next TC ->>

click for intensity scale information  Lat/long Grid: Show Hide

 Date Labels: Show Hide

Joint Typhoon Warning Centre Cyclone Data

Name: VANIA

10 Nov 1994 18:00 UTC to 19 Nov 1994 06:00 UTC

    date/time    lat    long     hPa   cat  kts
1994-11-10 18    7.1   167.7                  15          
1994-11-11 00    7.6   167.9                  15          
1994-11-11 06    8.1   168.2                  15          
1994-11-11 12    8.6   168.6                  20          
1994-11-11 18    9.1   169.0                  20          
1994-11-12 00    9.6   169.4                  20          
1994-11-12 06   10.1   169.8                  25          
1994-11-12 12   10.5   170.1                  25          
1994-11-12 18   10.9   170.3                  30          
1994-11-13 00   11.3   170.4                  30          
1994-11-13 06   11.6   170.0                  35          
1994-11-13 12   11.9   169.6                  35          
1994-11-13 18   12.2   169.2            1     40          
1994-11-14 00   12.6   168.9            1     40          
1994-11-14 06   13.0   168.6            1     45          
1994-11-14 12   13.6   168.4            1     45          
1994-11-14 18   14.4   168.3            1     50          
1994-11-15 00   15.3   168.2            1     50          
1994-11-15 06   16.2   168.1            2     55          
1994-11-15 12   17.1   168.0            2     60          
1994-11-15 18   17.9   167.9            2     60          
1994-11-16 00   18.6   167.8            2     55          
1994-11-16 06   19.1   167.7            2     55          
1994-11-16 12   19.4   167.5            1     50          
1994-11-16 18   19.5   167.2            1     50          
1994-11-17 00   19.4   166.9            1     45          
1994-11-17 06   19.3   166.6            1     40          
1994-11-17 12   19.2   166.4                  35          
1994-11-17 18   19.1   166.2                  30          
1994-11-18 00   19.0   166.3                  30          
1994-11-18 06   18.9   166.5                  25          
1994-11-18 12   18.7   166.8                  25          
1994-11-18 18   18.4   167.1                  20          
1994-11-19 00   18.1   167.4                  20          
1994-11-19 06   17.8   167.6                  15          
Winds are 1-min average.

Tropical cyclone tracks developed by Michael Bath using data from the Joint Typhoon Warning Centre Best Tracks and Google Maps.


[Australian Severe Weather index] [Copyright Notice] [Email Contacts] [Search This Site] [Privacy Policy]
Document: tropical_cyclone_vania.htm Updated: 18 September 2016